Time;durP1;ratioP1;P1;durP2;ratioP2;P2;SDS_P1;SDS_P2;PMS_P1;PMS_P2;Temp;Humidity;BMP_temperature;BMP_pressure;BME280_temperature;BME280_humidity;BME280_pressure;Samples;Min_cycle;Max_cycle;Signal;HPM_P1;HPM_P2
2023/11/16 00:00:13;;;;;;;4.90;1.10;;;9.10;99.90;;;;;;4971636;28;20053;-61
2023/11/16 00:02:43;;;;;;;8.88;2.13;;;9.10;99.90;;;;;;4974326;28;20505;-62
2023/11/16 00:05:13;;;;;;;8.00;1.17;;;9.00;99.90;;;;;;4987982;28;20134;-62
2023/11/16 00:07:45;;;;;;;7.68;1.27;;;9.00;99.90;;;;;;4986961;28;20050;-62
2023/11/16 00:10:14;;;;;;;8.80;1.58;;;8.90;99.90;;;;;;4988357;28;20105;-62
2023/11/16 00:12:40;;;;;;;6.35;1.10;;;8.90;99.90;;;;;;4985905;28;20061;-62
2023/11/16 00:15:06;;;;;;;7.53;1.00;;;8.90;99.90;;;;;;4968523;28;20046;-62
2023/11/16 00:17:37;;;;;;;5.80;0.90;;;8.90;99.90;;;;;;4986449;28;20038;-62
2023/11/16 00:20:07;;;;;;;13.48;1.60;;;8.80;99.90;;;;;;4971140;28;20061;-62
2023/11/16 00:22:33;;;;;;;8.20;0.98;;;8.80;99.90;;;;;;4987696;28;20046;-62
2023/11/16 00:24:59;;;;;;;8.68;1.35;;;8.80;99.90;;;;;;4964749;28;20051;-63
2023/11/16 00:27:26;;;;;;;6.78;1.00;;;8.80;99.90;;;;;;4988451;28;20474;-62
2023/11/16 00:29:54;;;;;;;8.90;1.05;;;8.80;99.90;;;;;;4981664;28;20078;-61
2023/11/16 00:32:20;;;;;;;5.88;1.20;;;8.80;99.90;;;;;;4979573;28;20069;-62
2023/11/16 00:34:45;;;;;;;6.03;1.02;;;8.80;99.90;;;;;;4985756;28;20077;-62
2023/11/16 00:37:11;;;;;;;3.97;1.20;;;8.70;99.90;;;;;;4988084;28;20112;-63
2023/11/16 00:39:40;;;;;;;7.68;1.10;;;8.70;99.90;;;;;;4968925;28;20145;-63
2023/11/16 00:42:06;;;;;;;10.93;1.30;;;8.70;99.90;;;;;;4970558;28;20513;-62
2023/11/16 00:44:32;;;;;;;7.85;1.20;;;8.70;99.90;;;;;;4987713;28;20042;-62
2023/11/16 00:46:57;;;;;;;4.43;0.90;;;8.70;99.90;;;;;;4986970;28;20052;-59
2023/11/16 00:49:26;;;;;;;7.97;1.85;;;8.70;99.90;;;;;;4987997;28;20069;-63
2023/11/16 00:51:52;;;;;;;6.15;1.00;;;8.70;99.90;;;;;;4987581;28;20038;-62
2023/11/16 00:54:19;;;;;;;10.63;1.27;;;8.70;99.90;;;;;;4987501;28;20524;-62
2023/11/16 00:56:45;;;;;;;5.85;0.95;;;8.60;99.90;;;;;;4987978;28;20038;-63
2023/11/16 00:59:11;;;;;;;11.55;1.42;;;8.60;99.90;;;;;;4984919;28;20045;-62
2023/11/16 01:01:39;;;;;;;8.40;1.02;;;8.60;99.90;;;;;;4986366;28;20410;-62
2023/11/16 01:04:06;;;;;;;5.82;0.80;;;8.60;99.90;;;;;;4987541;28;20524;-62
2023/11/16 01:06:32;;;;;;;4.03;1.08;;;8.60;99.90;;;;;;4968791;28;20042;-63
2023/11/16 01:08:59;;;;;;;6.95;1.38;;;8.60;99.90;;;;;;4988202;28;20038;-62
2023/11/16 01:11:27;;;;;;;5.82;1.10;;;8.60;99.90;;;;;;4985567;28;20048;-61
2023/11/16 01:13:57;;;;;;;5.32;0.98;;;8.50;99.90;;;;;;4980842;28;20030;-62
2023/11/16 01:16:30;;;;;;;8.57;1.02;;;8.50;99.90;;;;;;4969933;28;20046;-61
2023/11/16 01:18:56;;;;;;;11.40;1.45;;;8.50;99.90;;;;;;4969772;28;20038;-62
2023/11/16 01:21:22;;;;;;;6.72;1.27;;;8.50;99.90;;;;;;4987450;28;20054;-61
2023/11/16 01:23:47;;;;;;;8.30;1.20;;;8.50;99.90;;;;;;4988021;28;20045;-63
2023/11/16 01:26:15;;;;;;;8.68;1.30;;;8.60;99.90;;;;;;4987169;28;20129;-63
2023/11/16 01:28:46;;;;;;;4.90;1.10;;;8.60;99.90;;;;;;4968675;28;20081;-60
2023/11/16 01:31:17;;;;;;;11.55;1.48;;;8.60;99.90;;;;;;4987655;28;20162;-62
2023/11/16 01:33:43;;;;;;;10.45;1.00;;;8.60;99.90;;;;;;4984649;28;20026;-63
2023/11/16 01:36:10;;;;;;;6.30;0.95;;;8.60;99.90;;;;;;4989281;28;20040;-62
2023/11/16 01:38:36;;;;;;;6.78;1.17;;;8.60;99.90;;;;;;4994021;28;20394;-61
2023/11/16 01:41:04;;;;;;;5.13;0.93;;;8.60;99.90;;;;;;4991589;28;20089;-60
2023/11/16 01:43:32;;;;;;;8.93;1.52;;;8.60;99.90;;;;;;4957751;28;20053;-62
2023/11/16 01:45:58;;;;;;;10.57;1.20;;;8.60;99.90;;;;;;4991070;28;20038;-61
2023/11/16 01:48:25;;;;;;;6.68;1.05;;;8.60;99.90;;;;;;4989351;28;20042;-61
2023/11/16 01:50:53;;;;;;;6.70;1.23;;;8.70;99.90;;;;;;4988550;28;20042;-61
2023/11/16 01:53:22;;;;;;;7.60;1.45;;;8.60;99.90;;;;;;4988781;28;20050;-61
2023/11/16 01:55:48;;;;;;;11.13;1.25;;;8.60;99.90;;;;;;4987986;28;20078;-63
2023/11/16 01:58:14;;;;;;;10.80;1.65;;;8.60;99.90;;;;;;4972412;28;20117;-63
2023/11/16 02:00:43;;;;;;;6.97;1.45;;;8.60;99.90;;;;;;4967706;28;20553;-62
2023/11/16 02:03:10;;;;;;;4.18;0.93;;;8.60;99.90;;;;;;4990726;28;20494;-61
2023/11/16 02:05:36;;;;;;;6.90;1.17;;;8.60;99.90;;;;;;4990673;28;20042;-61
2023/11/16 02:08:09;;;;;;;7.82;1.27;;;8.60;99.90;;;;;;4988747;28;20510;-63
2023/11/16 02:10:37;;;;;;;7.50;1.13;;;8.60;99.90;;;;;;4987163;28;20061;-60
2023/11/16 02:13:04;;;;;;;8.30;1.15;;;8.60;99.90;;;;;;4986654;28;20042;-60
2023/11/16 02:15:31;;;;;;;10.98;1.35;;;8.60;99.90;;;;;;4967735;28;20422;-61
2023/11/16 02:18:01;;;;;;;7.30;1.08;;;8.60;99.90;;;;;;4991188;28;20046;-61
2023/11/16 02:20:29;;;;;;;8.70;1.08;;;8.60;99.90;;;;;;4986523;28;20469;-61
2023/11/16 02:22:55;;;;;;;8.95;1.02;;;8.60;99.90;;;;;;4975040;28;20388;-63
2023/11/16 02:25:22;;;;;;;5.95;1.00;;;8.50;99.90;;;;;;4956750;28;20077;-61
2023/11/16 02:27:48;;;;;;;6.63;1.20;;;8.50;99.90;;;;;;4990224;28;20104;-61
2023/11/16 02:30:13;;;;;;;10.15;1.50;;;8.40;99.90;;;;;;4973273;28;20074;-61
2023/11/16 02:32:40;;;;;;;9.32;1.30;;;8.40;99.90;;;;;;4987204;28;20031;-61
2023/11/16 02:35:07;;;;;;;6.07;1.20;;;8.40;99.90;;;;;;4987579;28;20074;-61
2023/11/16 02:37:34;;;;;;;8.23;1.20;;;8.30;99.90;;;;;;4991064;28;20046;-61
2023/11/16 02:40:00;;;;;;;8.73;1.10;;;8.30;99.90;;;;;;4972684;28;20100;-61
2023/11/16 02:42:26;;;;;;;5.97;1.15;;;8.30;99.90;;;;;;4990007;28;20510;-60
2023/11/16 02:44:57;;;;;;;9.07;1.13;;;8.30;99.90;;;;;;4986630;28;20046;-61
2023/11/16 02:47:24;;;;;;;8.60;1.42;;;8.20;99.90;;;;;;4989409;28;20065;-61
2023/11/16 02:49:50;;;;;;;7.75;1.27;;;8.20;99.90;;;;;;4990046;28;20042;-62
2023/11/16 02:52:15;;;;;;;5.32;1.05;;;8.20;99.90;;;;;;4982390;28;20109;-61
2023/11/16 02:54:41;;;;;;;7.60;1.20;;;8.10;99.90;;;;;;4973864;28;20133;-60
2023/11/16 02:57:09;;;;;;;7.85;1.73;;;8.10;99.90;;;;;;4992320;28;20034;-61
2023/11/16 02:59:35;;;;;;;11.77;1.52;;;8.10;99.90;;;;;;4989440;28;20659;-62
2023/11/16 03:02:06;;;;;;;9.15;1.45;;;8.00;99.90;;;;;;4986341;28;20084;-62
2023/11/16 03:04:32;;;;;;;7.55;1.65;;;8.00;99.90;;;;;;4989592;28;20042;-64
2023/11/16 03:06:57;;;;;;;6.55;1.17;;;8.00;99.90;;;;;;4989767;28;20434;-63
2023/11/16 03:09:23;;;;;;;10.32;1.17;;;8.00;99.90;;;;;;4997546;28;20041;-62
2023/11/16 03:11:49;;;;;;;8.93;1.33;;;7.90;99.90;;;;;;4991242;28;20038;-61
2023/11/16 03:14:14;;;;;;;7.38;1.23;;;7.90;99.90;;;;;;4990031;28;20046;-60
2023/11/16 03:16:44;;;;;;;10.15;1.48;;;7.90;99.90;;;;;;4988234;28;20351;-61
2023/11/16 03:19:10;;;;;;;7.35;1.17;;;7.90;99.90;;;;;;4983716;28;20134;-61
2023/11/16 03:21:36;;;;;;;9.52;1.73;;;7.90;99.90;;;;;;4989551;28;20113;-60
2023/11/16 03:24:01;;;;;;;9.25;1.30;;;7.80;99.90;;;;;;4982321;28;20745;-61
2023/11/16 03:26:27;;;;;;;7.18;1.10;;;7.80;99.90;;;;;;4995554;28;20034;-61
2023/11/16 03:28:53;;;;;;;4.68;1.20;;;7.80;99.90;;;;;;4972896;28;20085;-61
2023/11/16 03:31:19;;;;;;;11.55;1.25;;;7.80;99.90;;;;;;4965995;28;20051;-60
2023/11/16 03:33:45;;;;;;;12.65;1.45;;;7.70;99.90;;;;;;4989357;28;20531;-62
2023/11/16 03:36:10;;;;;;;7.53;1.23;;;7.70;99.90;;;;;;4987648;28;20462;-63
2023/11/16 03:38:36;;;;;;;8.18;1.30;;;7.60;99.90;;;;;;4975905;28;20104;-62
2023/11/16 03:41:01;;;;;;;7.90;1.50;;;7.60;99.90;;;;;;4982580;28;20042;-61
2023/11/16 03:43:27;;;;;;;7.85;1.23;;;7.60;99.90;;;;;;4987859;28;20034;-61
2023/11/16 03:45:53;;;;;;;6.45;1.20;;;7.60;99.90;;;;;;4971057;28;20137;-61
2023/11/16 03:48:19;;;;;;;10.40;1.80;;;7.50;99.90;;;;;;4987865;28;20450;-64
2023/11/16 03:50:44;;;;;;;7.78;1.48;;;7.50;99.90;;;;;;4971412;28;20048;-61
2023/11/16 03:53:10;;;;;;;8.45;1.23;;;7.50;99.90;;;;;;4987248;28;20113;-61
2023/11/16 03:55:36;;;;;;;6.05;1.25;;;7.50;99.90;;;;;;4988401;28;20119;-61
2023/11/16 03:58:01;;;;;;;8.32;1.40;;;7.50;99.90;;;;;;4986139;28;20281;-61
2023/11/16 04:00:27;;;;;;;11.90;1.60;;;7.40;99.90;;;;;;4971049;28;20050;-64
2023/11/16 04:02:58;;;;;;;10.07;1.92;;;7.40;99.90;;;;;;4966899;28;20047;-60
2023/11/16 04:05:24;;;;;;;7.40;1.33;;;7.40;99.90;;;;;;4988201;28;20085;-61
2023/11/16 04:07:49;;;;;;;11.35;1.60;;;7.30;99.90;;;;;;4988682;28;20054;-63
2023/11/16 04:10:15;;;;;;;7.55;1.40;;;7.30;99.90;;;;;;4982490;28;20064;-61
2023/11/16 04:12:41;;;;;;;7.10;1.23;;;7.20;99.90;;;;;;4988527;28;20049;-63
2023/11/16 04:15:13;;;;;;;4.85;1.33;;;7.20;99.90;;;;;;4970238;28;20054;-61
2023/11/16 04:17:39;;;;;;;5.72;1.13;;;7.20;99.90;;;;;;4986537;28;20030;-60
2023/11/16 04:20:08;;;;;;;4.15;1.23;;;7.20;99.90;;;;;;4984285;28;20049;-61
2023/11/16 04:22:38;;;;;;;10.30;1.63;;;7.10;99.90;;;;;;4970489;28;20053;-61
2023/11/16 04:25:25;;;;;;;3.80;1.00;;;7.10;99.90;;;;;;4983832;28;20096;-61
2023/11/16 04:27:51;;;;;;;7.13;1.25;;;7.10;99.90;;;;;;4982478;28;20074;-61
2023/11/16 04:30:20;;;;;;;6.72;1.33;;;7.10;99.90;;;;;;4983994;28;20050;-61
2023/11/16 04:32:47;;;;;;;10.02;1.50;;;7.10;99.90;;;;;;4982895;28;20041;-62
2023/11/16 04:35:16;;;;;;;10.20;1.58;;;7.00;99.90;;;;;;4987978;28;20125;-62
2023/11/16 04:37:42;;;;;;;8.27;1.40;;;7.00;99.90;;;;;;4985304;28;20030;-63
2023/11/16 04:40:09;;;;;;;9.18;1.30;;;7.00;99.90;;;;;;4970742;28;20088;-63
2023/11/16 04:42:34;;;;;;;7.10;1.65;;;7.00;99.90;;;;;;4987618;28;20046;-61
2023/11/16 04:45:03;;;;;;;6.80;1.08;;;7.00;99.90;;;;;;4987933;28;20177;-62
2023/11/16 04:47:29;;;;;;;6.03;1.58;;;6.90;99.90;;;;;;4969809;28;20085;-62
2023/11/16 04:49:55;;;;;;;6.50;1.15;;;6.90;99.90;;;;;;4988134;28;20038;-62
2023/11/16 04:52:23;;;;;;;8.13;1.40;;;6.90;99.90;;;;;;4987893;28;20101;-62
2023/11/16 04:54:49;;;;;;;4.93;1.10;;;6.80;99.90;;;;;;4984611;28;20034;-62
2023/11/16 04:57:15;;;;;;;8.90;1.20;;;6.70;99.90;;;;;;4970149;28;20042;-62
2023/11/16 04:59:40;;;;;;;5.72;1.05;;;6.70;99.90;;;;;;4984391;28;20035;-61
2023/11/16 05:02:07;;;;;;;8.30;1.38;;;6.70;99.90;;;;;;4987700;28;20553;-62
2023/11/16 05:04:32;;;;;;;6.75;1.30;;;6.70;99.90;;;;;;4984218;28;20073;-62
2023/11/16 05:06:58;;;;;;;8.85;1.33;;;6.60;99.90;;;;;;4987838;28;20068;-62
2023/11/16 05:09:26;;;;;;;7.30;1.13;;;6.60;99.90;;;;;;4986970;28;20042;-62
2023/11/16 05:11:54;;;;;;;6.78;1.02;;;6.60;99.90;;;;;;4987051;28;20038;-62
2023/11/16 05:14:20;;;;;;;5.70;1.45;;;6.60;99.90;;;;;;4987054;28;20552;-62
2023/11/16 05:16:46;;;;;;;4.65;0.95;;;6.60;99.90;;;;;;4953101;28;20857;-62
2023/11/16 05:19:12;;;;;;;7.95;1.10;;;6.50;99.90;;;;;;4987312;28;20054;-62
2023/11/16 05:21:39;;;;;;;6.53;1.15;;;6.50;99.90;;;;;;4984003;28;20048;-62
2023/11/16 05:24:06;;;;;;;5.55;1.30;;;6.50;99.90;;;;;;4987201;28;20128;-62
2023/11/16 05:26:32;;;;;;;5.97;1.25;;;6.50;99.90;;;;;;4993457;28;20074;-62
2023/11/16 05:28:58;;;;;;;5.05;1.13;;;6.50;99.90;;;;;;4986994;28;20069;-61
2023/11/16 05:31:24;;;;;;;6.30;1.15;;;6.40;99.90;;;;;;4981415;28;20081;-62
2023/11/16 05:33:49;;;;;;;7.07;1.27;;;6.40;99.90;;;;;;4985704;28;20070;-62
2023/11/16 05:36:15;;;;;;;8.18;1.42;;;6.40;99.90;;;;;;4980772;28;20501;-62
2023/11/16 05:38:41;;;;;;;3.88;1.10;;;6.40;99.90;;;;;;4974117;28;20175;-62
2023/11/16 05:41:07;;;;;;;7.40;1.25;;;6.30;99.90;;;;;;4986663;28;20532;-62
2023/11/16 05:43:33;;;;;;;2.38;0.82;;;6.30;99.90;;;;;;4986982;28;20042;-62
2023/11/16 05:45:58;;;;;;;6.45;1.40;;;6.20;99.90;;;;;;4985182;28;20065;-62
2023/11/16 05:48:24;;;;;;;4.35;1.05;;;6.20;99.90;;;;;;4987073;28;20077;-62
2023/11/16 05:50:50;;;;;;;5.95;1.48;;;6.10;99.90;;;;;;4990511;28;20050;-63
2023/11/16 05:53:15;;;;;;;4.93;0.90;;;6.10;99.90;;;;;;4980808;28;20038;-62
2023/11/16 05:55:42;;;;;;;4.90;1.00;;;6.00;99.90;;;;;;4987129;28;20038;-61
2023/11/16 05:58:08;;;;;;;4.53;1.00;;;6.00;99.90;;;;;;4989128;28;20046;-62
2023/11/16 06:00:36;;;;;;;3.58;1.00;;;6.00;99.90;;;;;;4986698;28;20126;-62
2023/11/16 06:03:04;;;;;;;4.85;1.20;;;5.90;99.90;;;;;;4991347;28;20041;-61
2023/11/16 06:05:30;;;;;;;5.70;1.02;;;5.90;99.90;;;;;;4969001;28;20045;-63
2023/11/16 06:07:55;;;;;;;7.07;1.30;;;5.90;99.90;;;;;;4986506;28;20038;-62
2023/11/16 06:10:21;;;;;;;5.40;1.17;;;5.90;99.90;;;;;;4986603;28;20050;-62
2023/11/16 06:12:47;;;;;;;5.55;1.00;;;5.80;99.90;;;;;;4986195;28;20044;-60
2023/11/16 06:15:14;;;;;;;7.63;1.23;;;5.80;99.90;;;;;;4986539;28;20145;-62
2023/11/16 06:17:41;;;;;;;3.30;0.93;;;5.80;99.90;;;;;;4987010;28;20034;-62
2023/11/16 06:20:10;;;;;;;2.58;0.95;;;5.80;99.90;;;;;;4990565;28;20060;-62
2023/11/16 06:22:36;;;;;;;4.35;0.90;;;5.80;99.90;;;;;;4989700;28;20271;-62
2023/11/16 06:25:04;;;;;;;7.80;1.13;;;5.70;99.90;;;;;;4989957;28;20046;-63
2023/11/16 06:27:30;;;;;;;5.70;0.90;;;5.70;99.90;;;;;;4990301;28;20069;-62
2023/11/16 06:29:56;;;;;;;4.70;1.05;;;5.70;99.90;;;;;;4972439;28;20084;-62
2023/11/16 06:32:22;;;;;;;5.53;1.20;;;5.60;99.90;;;;;;4972674;28;20050;-62
2023/11/16 06:34:48;;;;;;;4.57;0.95;;;5.60;99.90;;;;;;4989895;28;20042;-61
2023/11/16 06:37:14;;;;;;;2.90;0.82;;;5.50;99.90;;;;;;4990035;28;20038;-62
2023/11/16 06:39:40;;;;;;;2.72;0.90;;;5.50;99.90;;;;;;4989842;28;20057;-62
2023/11/16 06:42:06;;;;;;;6.28;1.30;;;5.50;99.90;;;;;;4988161;28;20038;-62
2023/11/16 06:44:33;;;;;;;4.03;1.27;;;5.40;99.90;;;;;;4989661;28;20076;-62
2023/11/16 06:46:58;;;;;;;5.03;1.35;;;5.40;99.90;;;;;;4990034;28;20406;-62
2023/11/16 06:49:27;;;;;;;4.03;1.10;;;5.40;99.90;;;;;;4989502;28;20042;-62
2023/11/16 06:51:53;;;;;;;7.35;1.50;;;5.40;99.90;;;;;;4989766;28;20484;-61
2023/11/16 06:54:21;;;;;;;3.63;1.00;;;5.40;99.90;;;;;;4989548;28;20038;-61
2023/11/16 06:56:49;;;;;;;2.72;0.90;;;5.60;99.90;;;;;;4971657;28;20046;-61
2023/11/16 06:59:19;;;;;;;4.10;1.13;;;5.40;99.90;;;;;;4989815;28;20034;-62
2023/11/16 07:01:47;;;;;;;4.82;0.98;;;5.30;99.90;;;;;;4994546;28;20034;-60
2023/11/16 07:04:14;;;;;;;4.28;1.20;;;5.30;99.90;;;;;;4989287;28;20050;-60
2023/11/16 07:06:40;;;;;;;7.40;1.30;;;5.30;99.90;;;;;;4989695;28;20034;-61
2023/11/16 07:09:06;;;;;;;3.30;1.10;;;5.30;99.90;;;;;;4988159;28;20053;-60
2023/11/16 07:11:32;;;;;;;4.95;1.30;;;5.30;99.90;;;;;;4955216;28;20050;-61
2023/11/16 07:13:57;;;;;;;4.78;1.20;;;5.30;99.90;;;;;;4989388;28;20397;-61
2023/11/16 07:16:23;;;;;;;4.88;1.35;;;5.30;99.90;;;;;;4996915;28;20068;-61
2023/11/16 07:18:49;;;;;;;4.97;1.33;;;5.30;99.90;;;;;;4989365;28;20408;-63
2023/11/16 07:21:14;;;;;;;5.82;1.15;;;5.40;99.90;;;;;;4978409;28;20608;-62
2023/11/16 07:23:43;;;;;;;5.95;1.30;;;5.30;99.90;;;;;;4988809;28;20121;-61
2023/11/16 07:26:09;;;;;;;4.47;1.08;;;5.30;99.90;;;;;;4989051;28;20046;-62
2023/11/16 07:28:36;;;;;;;4.35;1.10;;;5.30;99.90;;;;;;4989023;28;20166;-63
2023/11/16 07:31:07;;;;;;;3.72;1.35;;;5.20;99.90;;;;;;4971151;28;20049;-61
2023/11/16 07:33:35;;;;;;;4.03;0.98;;;5.20;99.90;;;;;;4987570;28;20543;-60
2023/11/16 07:36:02;;;;;;;2.83;1.05;;;5.20;99.90;;;;;;4955021;28;20038;-64
2023/11/16 07:38:28;;;;;;;6.90;1.10;;;5.20;99.90;;;;;;4988569;28;20493;-62
2023/11/16 07:40:57;;;;;;;3.42;1.30;;;5.20;99.90;;;;;;4970890;28;20046;-60
2023/11/16 07:43:24;;;;;;;4.30;1.27;;;5.20;99.90;;;;;;4992698;28;20129;-61
2023/11/16 07:45:50;;;;;;;6.97;1.50;;;5.20;99.90;;;;;;4987379;28;20081;-62
2023/11/16 07:48:15;;;;;;;4.75;1.33;;;5.20;99.90;;;;;;4987453;28;20502;-62
2023/11/16 07:50:42;;;;;;;3.63;1.20;;;5.30;99.90;;;;;;4988472;28;20034;-61
2023/11/16 07:53:10;;;;;;;4.07;1.40;;;5.30;99.90;;;;;;4964141;28;20549;-63
2023/11/16 07:55:36;;;;;;;4.40;1.30;;;5.30;99.90;;;;;;4991228;28;20046;-61
2023/11/16 07:58:03;;;;;;;4.57;1.02;;;5.30;99.90;;;;;;4988325;28;20085;-61
2023/11/16 08:00:34;;;;;;;2.25;1.30;;;5.30;99.90;;;;;;4988290;28;20057;-62
2023/11/16 08:05:48;;;;;;;4.38;1.10;;;5.30;99.90;;;;;;4982232;28;20046;-62
2023/11/16 08:08:15;;;;;;;4.43;1.20;;;5.30;99.90;;;;;;4969005;28;20050;-62
2023/11/16 08:10:42;;;;;;;4.55;1.48;;;5.30;99.90;;;;;;4988023;28;20050;-61
2023/11/16 08:13:10;;;;;;;5.75;1.30;;;5.30;99.90;;;;;;4952305;28;20046;-62
2023/11/16 08:15:40;;;;;;;4.97;1.40;;;5.40;99.90;;;;;;4988018;28;20366;-61
2023/11/16 08:18:09;;;;;;;6.47;2.20;;;5.40;99.90;;;;;;4981495;28;20042;-60
2023/11/16 08:20:35;;;;;;;5.70;2.15;;;5.40;99.90;;;;;;4988371;28;20049;-61
2023/11/16 08:23:01;;;;;;;5.97;1.85;;;5.50;99.90;;;;;;4970160;28;20038;-64
2023/11/16 08:25:30;;;;;;;4.70;1.50;;;5.50;99.90;;;;;;4980168;28;20057;-60
2023/11/16 08:27:57;;;;;;;5.60;1.80;;;5.50;99.90;;;;;;4987542;28;20053;-61
2023/11/16 08:30:23;;;;;;;7.97;1.85;;;5.60;99.90;;;;;;4987817;28;20138;-63
2023/11/16 08:32:49;;;;;;;6.90;1.88;;;5.60;99.90;;;;;;4987551;28;20173;-62
2023/11/16 08:35:15;;;;;;;5.15;2.00;;;5.60;99.90;;;;;;4987452;28;20034;-61
2023/11/16 08:37:42;;;;;;;8.07;2.10;;;5.70;99.90;;;;;;4968203;28;20043;-61
2023/11/16 08:40:16;;;;;;;6.72;1.90;;;5.70;99.90;;;;;;4961357;28;20059;-60
2023/11/16 08:42:43;;;;;;;9.20;2.20;;;5.70;99.90;;;;;;4987417;28;20177;-61
2023/11/16 08:45:20;;;;;;;5.07;1.58;;;5.80;99.90;;;;;;4986473;28;20391;-61
2023/11/16 08:47:47;;;;;;;9.27;1.85;;;5.80;99.90;;;;;;4970281;28;20041;-62
2023/11/16 08:50:16;;;;;;;6.60;1.92;;;5.80;99.90;;;;;;4987431;28;20057;-60
2023/11/16 08:52:46;;;;;;;8.65;2.03;;;5.90;99.90;;;;;;4970071;28;20049;-62
2023/11/16 08:55:13;;;;;;;9.13;1.88;;;5.90;99.90;;;;;;4987072;28;20054;-62
2023/11/16 08:57:41;;;;;;;11.10;2.30;;;6.00;99.90;;;;;;4987152;28;20109;-61
2023/11/16 09:02:54;;;;;;;11.07;2.30;;;6.00;99.90;;;;;;4982856;28;20045;-63
2023/11/16 09:05:21;;;;;;;8.63;2.38;;;6.20;99.90;;;;;;4969807;28;20048;-63
2023/11/16 09:07:46;;;;;;;6.90;2.28;;;6.20;99.90;;;;;;4987143;28;20073;-61
2023/11/16 09:10:19;;;;;;;10.85;2.88;;;6.30;99.90;;;;;;4986245;28;20082;-60
2023/11/16 09:12:45;;;;;;;9.02;2.00;;;6.30;99.90;;;;;;4969694;28;20050;-62
2023/11/16 09:15:11;;;;;;;7.07;2.22;;;6.30;99.90;;;;;;4969234;28;20046;-61
2023/11/16 09:17:37;;;;;;;8.32;2.28;;;6.30;99.90;;;;;;4989332;28;20113;-61
2023/11/16 09:20:10;;;;;;;8.55;2.35;;;6.40;99.90;;;;;;4985740;28;20050;-62
2023/11/16 09:22:42;;;;;;;9.65;2.08;;;6.40;99.90;;;;;;4986863;28;20377;-64
2023/11/16 09:25:15;;;;;;;6.00;2.10;;;6.50;99.90;;;;;;4979538;28;20050;-60
2023/11/16 09:27:41;;;;;;;8.90;2.30;;;6.50;99.90;;;;;;4988485;28;20164;-61
2023/11/16 09:30:13;;;;;;;7.15;2.20;;;6.50;99.90;;;;;;4985835;28;20054;-61
2023/11/16 09:32:39;;;;;;;7.77;2.20;;;6.60;99.90;;;;;;4979214;28;20034;-61
2023/11/16 09:35:07;;;;;;;12.85;2.50;;;6.50;99.90;;;;;;4975323;28;20047;-62
2023/11/16 09:37:34;;;;;;;7.03;2.25;;;6.60;99.90;;;;;;4987902;28;20034;-61
2023/11/16 09:40:04;;;;;;;5.97;1.80;;;6.60;99.90;;;;;;4990595;28;20046;-60
2023/11/16 09:42:31;;;;;;;11.05;2.40;;;6.70;99.90;;;;;;4987248;28;20038;-61
2023/11/16 09:45:00;;;;;;;7.68;2.38;;;6.70;99.90;;;;;;4980514;28;20514;-63
2023/11/16 09:47:29;;;;;;;6.78;2.20;;;6.70;99.90;;;;;;4969714;28;20047;-60
2023/11/16 09:49:59;;;;;;;11.55;2.60;;;6.70;99.90;;;;;;4986594;28;20514;-62
2023/11/16 09:52:38;;;;;;;6.07;1.95;;;6.80;99.90;;;;;;4969307;28;20034;-62
2023/11/16 09:55:06;;;;;;;19.00;2.35;;;6.80;99.90;;;;;;4986735;28;20042;-61
2023/11/16 09:57:34;;;;;;;8.02;2.03;;;6.80;99.90;;;;;;4990008;28;20064;-60
2023/11/16 10:00:13;;;;;;;11.23;1.90;;;6.90;99.90;;;;;;4988717;28;20038;-60
2023/11/16 10:02:45;;;;;;;10.15;2.28;;;6.90;99.90;;;;;;4983880;28;20077;-62
2023/11/16 10:05:40;;;;;;;7.13;1.80;;;6.90;99.90;;;;;;4988932;28;20042;-61
2023/11/16 10:08:08;;;;;;;8.38;2.00;;;6.90;99.90;;;;;;4988389;28;20513;-61
2023/11/16 10:10:37;;;;;;;10.30;2.13;;;7.00;99.90;;;;;;4991350;28;20126;-61
2023/11/16 10:13:06;;;;;;;5.32;1.75;;;7.00;99.90;;;;;;4988323;28;20042;-61
2023/11/16 10:15:33;;;;;;;9.23;2.40;;;7.10;99.90;;;;;;4991136;28;20043;-61
2023/11/16 10:18:01;;;;;;;6.22;1.90;;;7.10;99.90;;;;;;4991334;28;20034;-61
2023/11/16 10:20:26;;;;;;;5.15;1.85;;;7.10;99.90;;;;;;4983359;28;20935;-61
2023/11/16 10:22:53;;;;;;;6.32;2.00;;;7.10;99.90;;;;;;4990546;28;20054;-61
2023/11/16 10:25:21;;;;;;;7.90;2.00;;;7.20;99.90;;;;;;4991014;28;20112;-61
2023/11/16 10:27:49;;;;;;;8.27;1.80;;;7.20;99.90;;;;;;4973494;28;20038;-61
2023/11/16 10:30:16;;;;;;;10.77;2.30;;;7.30;99.90;;;;;;4973747;28;20121;-60
2023/11/16 10:32:42;;;;;;;7.53;2.22;;;7.30;99.90;;;;;;4991093;28;20038;-62
2023/11/16 10:35:15;;;;;;;8.73;2.00;;;7.40;99.90;;;;;;4990150;28;20034;-61
2023/11/16 10:37:44;;;;;;;6.32;1.80;;;7.40;99.90;;;;;;4971010;28;20034;-61
2023/11/16 10:40:11;;;;;;;8.80;2.00;;;7.50;99.90;;;;;;4988714;28;20546;-62
2023/11/16 10:42:41;;;;;;;10.32;2.28;;;7.50;99.90;;;;;;4989151;28;20038;-60
2023/11/16 10:45:16;;;;;;;9.18;2.22;;;7.50;99.90;;;;;;4990133;28;20069;-61
2023/11/16 10:47:45;;;;;;;6.38;2.00;;;7.50;99.90;;;;;;4990607;28;20034;-61
2023/11/16 10:50:15;;;;;;;4.53;1.85;;;7.40;99.90;;;;;;4990957;28;20050;-61
2023/11/16 10:52:45;;;;;;;9.85;1.83;;;7.60;99.90;;;;;;4989361;28;20049;-61
2023/11/16 10:55:21;;;;;;;8.15;1.90;;;7.60;99.90;;;;;;4990479;28;20054;-62
2023/11/16 10:57:58;;;;;;;9.27;1.90;;;7.70;99.90;;;;;;4985563;28;20046;-61
2023/11/16 11:00:29;;;;;;;7.80;2.28;;;7.70;99.90;;;;;;4990638;28;20451;-61
2023/11/16 11:02:57;;;;;;;13.30;2.15;;;7.70;99.90;;;;;;4986327;28;20041;-62
2023/11/16 11:05:23;;;;;;;8.85;2.35;;;7.80;99.90;;;;;;4989764;28;20038;-63
2023/11/16 11:07:53;;;;;;;9.60;2.40;;;7.80;99.90;;;;;;4984049;28;20042;-62
2023/11/16 11:10:27;;;;;;;9.25;1.90;;;7.80;99.90;;;;;;4972606;28;20078;-62
2023/11/16 11:13:00;;;;;;;7.07;2.13;;;7.80;99.90;;;;;;4989338;28;20053;-60
2023/11/16 11:15:53;;;;;;;9.20;2.10;;;7.90;99.90;;;;;;4964382;28;20065;-61
2023/11/16 11:18:27;;;;;;;10.32;2.25;;;7.90;99.90;;;;;;4987604;28;20057;-61
2023/11/16 11:21:04;;;;;;;6.63;2.03;;;8.00;99.90;;;;;;4982487;28;20042;-61
2023/11/16 11:23:29;;;;;;;9.18;2.30;;;8.00;99.90;;;;;;4981982;28;20042;-62
2023/11/16 11:26:03;;;;;;;3.95;1.75;;;8.00;99.90;;;;;;4996131;28;20038;-61
2023/11/16 11:28:29;;;;;;;6.88;1.77;;;8.10;99.90;;;;;;4980778;28;20050;-63
2023/11/16 11:31:05;;;;;;;7.07;2.00;;;8.10;99.90;;;;;;4972257;28;20047;-63
2023/11/16 11:33:41;;;;;;;5.57;1.52;;;8.10;99.90;;;;;;4980334;28;20074;-61
2023/11/16 11:36:10;;;;;;;7.80;1.90;;;8.10;99.90;;;;;;4966719;28;20049;-60
2023/11/16 11:38:39;;;;;;;11.70;2.15;;;8.20;99.90;;;;;;4994011;28;20525;-61
2023/11/16 11:41:08;;;;;;;6.20;2.17;;;8.20;99.90;;;;;;4989735;28;20042;-60
2023/11/16 11:43:38;;;;;;;5.45;1.70;;;8.20;99.90;;;;;;4971859;28;20409;-62
2023/11/16 11:46:05;;;;;;;6.55;1.85;;;8.30;99.90;;;;;;4988622;28;20073;-63
2023/11/16 11:48:33;;;;;;;7.97;1.92;;;8.30;99.90;;;;;;4988300;28;20145;-62
2023/11/16 11:51:04;;;;;;;8.85;2.13;;;8.40;99.90;;;;;;4989208;28;20053;-63
2023/11/16 11:53:32;;;;;;;8.85;1.95;;;8.40;99.90;;;;;;4965568;28;20542;-62
2023/11/16 11:55:59;;;;;;;11.50;2.08;;;8.40;99.90;;;;;;4992032;28;20117;-62
2023/11/16 11:58:25;;;;;;;6.45;1.90;;;8.40;99.90;;;;;;4989267;28;20387;-63
2023/11/16 12:00:53;;;;;;;12.30;2.25;;;8.40;99.90;;;;;;4988693;28;20041;-62
2023/11/16 12:03:20;;;;;;;7.03;2.15;;;8.50;99.90;;;;;;4989333;28;20042;-63
2023/11/16 12:05:58;;;;;;;9.88;2.03;;;8.50;99.90;;;;;;4988974;28;20038;-63
2023/11/16 12:08:37;;;;;;;10.82;2.22;;;8.50;99.90;;;;;;4989110;28;20050;-62
2023/11/16 12:11:04;;;;;;;6.80;2.00;;;8.60;99.90;;;;;;4971417;28;20503;-62
2023/11/16 12:13:30;;;;;;;5.18;1.85;;;8.50;99.90;;;;;;4988751;28;20524;-62
2023/11/16 12:15:57;;;;;;;5.80;2.03;;;8.60;99.90;;;;;;4988547;28;20031;-63
2023/11/16 12:18:22;;;;;;;9.05;2.10;;;8.60;99.90;;;;;;4988417;28;20410;-62
2023/11/16 12:20:53;;;;;;;8.18;2.00;;;8.60;99.90;;;;;;4988883;28;20034;-62
2023/11/16 12:23:19;;;;;;;12.25;2.00;;;8.60;99.90;;;;;;4987849;28;20140;-63
2023/11/16 12:25:45;;;;;;;7.72;1.95;;;8.60;99.90;;;;;;4988606;28;20094;-63
2023/11/16 12:28:11;;;;;;;12.00;2.28;;;8.60;99.90;;;;;;4985311;28;20085;-62
2023/11/16 12:30:37;;;;;;;6.70;1.80;;;8.60;99.90;;;;;;4988712;28;20121;-63
2023/11/16 12:33:05;;;;;;;8.23;2.05;;;8.60;99.90;;;;;;4988509;28;20034;-62
2023/11/16 12:35:31;;;;;;;10.75;2.30;;;8.60;99.90;;;;;;4988685;28;20042;-60
2023/11/16 12:37:56;;;;;;;10.23;2.20;;;8.60;99.90;;;;;;4988512;28;20041;-62
2023/11/16 12:40:22;;;;;;;6.15;1.90;;;8.60;99.90;;;;;;4988312;28;20482;-62
2023/11/16 12:42:49;;;;;;;6.38;2.33;;;8.60;99.90;;;;;;4987872;28;20078;-62
2023/11/16 12:45:15;;;;;;;8.57;2.10;;;8.60;99.90;;;;;;4982287;28;20046;-62
2023/11/16 12:47:41;;;;;;;6.13;2.42;;;8.60;99.90;;;;;;4987672;28;20046;-62
2023/11/16 12:50:08;;;;;;;7.55;2.10;;;8.60;99.90;;;;;;4968173;28;20419;-62
2023/11/16 12:52:34;;;;;;;7.15;2.55;;;8.60;99.90;;;;;;4986845;28;20041;-63
2023/11/16 12:55:01;;;;;;;10.13;2.30;;;8.60;99.90;;;;;;4987561;28;20042;-62
2023/11/16 12:57:27;;;;;;;8.60;2.33;;;8.60;99.90;;;;;;4980294;28;20030;-62
2023/11/16 12:59:53;;;;;;;7.82;2.15;;;8.60;99.90;;;;;;4970440;28;20077;-62
2023/11/16 13:02:19;;;;;;;4.85;2.40;;;8.60;99.90;;;;;;4986299;28;20607;-62